Stations météo

réclame
Mon MeteoGroup
Ploudalmezeau, France (7101): Température de l'air & dewpoint: 12.06.2019 01:00:00 - 18.06.2019 01:00:00 (CEST)Ploudalmezeau, France (7101): Vitesse du vent & gusts: 12.06.2019 01:00:00 - 18.06.2019 01:00:00 (CEST)Ploudalmezeau, France (7101): Direction du vent: 12.06.2019 01:00:00 - 18.06.2019 01:00:00 (CEST)Ploudalmezeau, France (7101): reduced air pressure: 12.06.2019 01:00:00 - 18.06.2019 01:00:00 (CEST)Ploudalmezeau, France (7101): Quantités de précipitations: 12.06.2019 01:00:00 - 18.06.2019 01:00:00 (CEST)
Date & Time tt [°C] td [°C] ff [km/h] ff [knt] fx [km/h] fx [knt] dd ppp [hPa] rr [mm]
18.06.2019 01:00:00 - - - - - - - - -
18.06.2019 00:00:00 13,6 12,0 5 3 - - E 1016,6 0,0
17.06.2019 23:00:00 13,6 11,1 5 3 - - ENE 1016,8 0,0
17.06.2019 22:00:00 14,7 10,7 4 2 - - NW 1016,8 0,0
17.06.2019 21:00:00 16,1 9,3 9 5 - - NNW 1016,6 0,0
17.06.2019 20:00:00 18,0 9,9 7 4 - - W 1016,8 0,0
17.06.2019 19:00:00 17,5 10,4 11 6 - - W 1017,2 0,0
17.06.2019 18:00:00 18,1 10,2 13 7 - - W 1017,2 0,0
17.06.2019 17:00:00 18,3 10,9 14 8 - - W 1017,8 0,0
17.06.2019 16:00:00 18,5 12,0 18 10 - - W 1018,0 0,0
17.06.2019 15:00:00 17,8 10,9 16 9 - - WSW 1018,1 0,0
17.06.2019 14:00:00 18,1 11,9 14 7 28 15 SW 1018,3 0,0
17.06.2019 13:00:00 17,6 11,4 10 6 - - SW 1018,4 0,0
17.06.2019 12:00:00 17,0 11,5 16 9 - - SW 1018,7 0,0
17.06.2019 11:00:00 16,8 11,7 13 7 - - SW 1018,5 0,0
17.06.2019 10:00:00 15,6 12,7 13 7 - - SW 1018,6 0,0
17.06.2019 09:00:00 14,7 13,4 11 6 - - SW 1018,6 0,0
17.06.2019 08:00:00 13,7 12,9 8 5 - - SW 1018,4 0,0
17.06.2019 07:00:00 13,3 12,8 8 4 - - SW 1018,4 0,0
17.06.2019 06:00:00 13,1 12,6 11 6 - - SW 1018,6 0,0
17.06.2019 05:00:00 12,8 12,3 10 5 - - SW 1018,6 0,0
17.06.2019 04:00:00 13,2 12,7 10 6 - - SW 1018,8 0,0
17.06.2019 03:00:00 13,2 12,7 11 6 - - SW 1019,1 0,0
17.06.2019 02:00:00 13,3 12,7 13 7 - - SW 1019,2 0,0
17.06.2019 01:00:00 13,3 12,5 12 7 - - SSW 1019,4 0,0
17.06.2019 00:00:00 13,7 12,8 11 6 - - SSW 1019,5 0,0
16.06.2019 23:00:00 13,9 12,5 12 7 - - SSW 1019,4 0,0
16.06.2019 22:00:00 14,4 12,8 11 6 - - SW 1019,2 0,0
16.06.2019 21:00:00 15,0 12,9 19 10 - - SW 1019,2 0,0
16.06.2019 20:00:00 15,6 12,9 18 10 - - SW 1019,0 0,0
16.06.2019 19:00:00 15,9 12,6 20 11 - - SW 1018,9 0,0
16.06.2019 18:00:00 16,2 12,9 22 12 - - SW 1019,1 0,0
16.06.2019 17:00:00 16,4 12,7 28 15 - - WSW 1019,2 0,0
16.06.2019 16:00:00 16,9 12,8 27 14 - - WSW 1019,2 0,0
16.06.2019 15:00:00 17,7 12,4 22 12 - - SW 1019,0 0,0
16.06.2019 14:00:00 17,0 12,3 27 14 - - WSW 1019,0 0,0
16.06.2019 13:00:00 16,5 13,2 25 14 - - SW 1018,9 0,0
16.06.2019 12:00:00 16,2 13,5 20 11 - - SW 1018,6 0,0
16.06.2019 11:00:00 16,1 12,5 22 12 - - SW 1018,4 0,0
16.06.2019 10:00:00 16,2 13,5 16 8 - - SW 1018,1 0,0
16.06.2019 09:00:00 14,6 13,1 23 12 - - SW 1017,7 0,0
16.06.2019 08:00:00 14,1 13,1 19 10 - - SW 1017,2 0,0
16.06.2019 07:00:00 13,8 13,0 22 12 - - WSW 1016,8 0,0
16.06.2019 06:00:00 13,9 13,3 23 12 - - SW 1016,5 0,0
16.06.2019 05:00:00 14,0 13,5 21 11 - - WSW 1016,4 0,2
16.06.2019 04:00:00 14,1 13,5 23 12 - - SW 1016,6 0,0
16.06.2019 03:00:00 13,9 13,3 21 11 - - WSW 1016,6 0,0
16.06.2019 02:00:00 13,5 12,9 17 9 - - SW 1016,6 0,0
16.06.2019 01:00:00 13,9 13,1 21 12 - - WSW 1016,5 0,0
16.06.2019 00:00:00 14,0 13,2 19 10 - - SW 1016,2 0,0
15.06.2019 23:00:00 13,8 13,0 18 10 - - WSW 1016,0 0,0
15.06.2019 22:00:00 13,9 12,8 19 11 - - WSW 1015,6 0,0
15.06.2019 21:00:00 14,2 13,1 20 11 - - WSW 1015,3 0,0
15.06.2019 20:00:00 14,9 13,3 26 14 - - W 1015,0 0,0
15.06.2019 19:00:00 14,7 13,7 19 10 - - WSW 1014,5 0,0
15.06.2019 18:00:00 14,7 13,6 17 9 - - SW 1014,5 0,2
15.06.2019 17:00:00 15,4 13,8 16 9 - - WSW 1014,5 0,0
15.06.2019 16:00:00 15,9 12,5 24 13 - - WSW 1014,2 0,0
15.06.2019 15:00:00 16,3 13,4 25 13 - - WSW 1013,6 0,0
15.06.2019 14:00:00 16,5 13,6 23 12 - - WSW 1013,0 0,0
15.06.2019 13:00:00 14,9 13,3 24 13 - - WSW 1013,1 0,2
15.06.2019 12:00:00 14,0 13,2 13 7 - - WSW 1012,8 1,0
15.06.2019 11:00:00 13,8 13,3 16 9 - - WSW 1012,7 10,6
15.06.2019 10:00:00 13,9 13,1 19 11 - - WSW 1012,3 0,0
15.06.2019 09:00:00 13,7 12,9 20 11 - - WSW 1011,9 0,0
15.06.2019 08:00:00 13,0 12,4 21 11 - - SW 1011,5 0,0
15.06.2019 07:00:00 12,4 11,8 19 11 - - SW 1011,3 0,6
15.06.2019 06:00:00 12,0 10,9 16 9 - - SW 1011,4 0,8
15.06.2019 05:00:00 12,7 11,4 17 9 - - SW 1011,4 0,2
15.06.2019 04:00:00 12,8 11,7 17 9 - - SW 1011,6 0,2
15.06.2019 03:00:00 13,1 11,7 15 8 - - SW 1011,8 0,0
15.06.2019 02:00:00 12,6 11,5 13 7 - - SSW 1012,1 0,0
15.06.2019 01:00:00 12,4 11,3 11 6 - - SSW 1012,2 0,0
15.06.2019 00:00:00 12,5 11,6 10 5 - - SSW 1012,5 0,0
14.06.2019 23:00:00 12,6 11,3 9 5 - - SW 1012,1 0,0
14.06.2019 22:00:00 13,7 11,2 16 9 - - SW 1011,9 0,0
14.06.2019 21:00:00 15,0 10,8 22 12 - - WSW 1012,0 0,0
14.06.2019 20:00:00 15,3 10,1 24 13 - - WSW 1012,1 0,0
14.06.2019 19:00:00 15,3 10,7 22 12 - - SW 1011,9 0,0
14.06.2019 18:00:00 15,5 10,7 21 12 - - SW 1011,8 0,0
14.06.2019 17:00:00 16,3 10,8 19 11 - - SW 1011,7 0,0
14.06.2019 16:00:00 15,5 11,3 25 13 - - WSW 1011,8 0,0
14.06.2019 15:00:00 16,2 10,9 22 12 - - WSW 1011,8 0,0
14.06.2019 14:00:00 15,6 11,4 19 11 - - SW 1011,8 0,0
14.06.2019 13:00:00 14,5 10,7 19 11 - - WSW 1011,9 0,0
14.06.2019 12:00:00 14,7 11,1 22 12 - - WSW 1011,7 0,0
14.06.2019 11:00:00 14,5 11,6 25 13 - - WSW 1011,6 0,0
14.06.2019 10:00:00 14,6 11,7 22 12 - - WSW 1011,1 0,0
14.06.2019 09:00:00 14,1 12,0 19 11 - - WSW 1010,9 0,0
14.06.2019 08:00:00 13,0 12,2 17 9 - - SW 1010,6 0,0
14.06.2019 07:00:00 12,2 11,6 11 6 - - SW 1010,4 0,2
14.06.2019 06:00:00 12,0 11,2 11 6 - - WSW 1010,2 0,0
14.06.2019 05:00:00 12,6 12,0 14 8 - - WSW 1010,1 0,6
14.06.2019 04:00:00 12,5 11,9 13 7 - - SW 1010,1 0,4
14.06.2019 03:00:00 12,8 12,3 16 8 - - WSW 1010,3 1,2
14.06.2019 02:00:00 12,9 11,8 12 7 - - SW 1010,7 0,2
14.06.2019 01:00:00 13,2 11,6 16 9 - - WSW 1010,9 0,0
14.06.2019 00:00:00 13,1 11,5 16 9 - - WSW 1010,9 0,0
13.06.2019 23:00:00 13,3 11,4 16 9 - - WSW 1011,0 0,0
13.06.2019 22:00:00 13,0 11,2 15 8 - - WSW 1010,5 0,0
13.06.2019 21:00:00 13,5 11,2 19 10 - - WSW 1010,4 0,0
13.06.2019 20:00:00 14,0 11,3 20 11 - - WSW 1010,4 0,0
13.06.2019 19:00:00 14,4 11,2 24 13 - - W 1010,2 0,0
13.06.2019 18:00:00 15,0 11,2 23 12 - - WSW 1010,0 0,0
13.06.2019 17:00:00 15,3 10,3 24 13 - - WSW 1009,7 0,0
13.06.2019 16:00:00 15,8 10,5 23 13 - - WSW 1009,8 0,0
13.06.2019 15:00:00 15,6 10,4 22 12 - - WSW 1009,9 0,0
13.06.2019 14:00:00 15,2 10,8 22 12 - - WSW 1009,7 0,0
13.06.2019 13:00:00 15,2 10,4 19 11 - - WSW 1009,5 0,0
13.06.2019 12:00:00 13,9 10,1 25 14 - - W 1009,5 0,0
13.06.2019 11:00:00 13,4 10,2 20 11 - - W 1009,4 0,0
13.06.2019 10:00:00 12,6 9,8 18 10 - - W 1009,3 0,0
13.06.2019 09:00:00 12,2 10,4 14 8 - - W 1009,1 0,0
13.06.2019 08:00:00 11,5 10,7 9 5 - - WSW 1008,7 0,0
13.06.2019 07:00:00 10,7 10,1 9 5 - - WSW 1008,7 0,0
13.06.2019 06:00:00 9,9 9,1 8 4 - - WSW 1008,6 0,0
13.06.2019 05:00:00 9,6 8,8 6 3 - - SW 1008,8 0,0
13.06.2019 04:00:00 10,2 9,3 6 3 - - WSW 1009,3 0,0
13.06.2019 03:00:00 10,3 9,4 5 3 - - WSW 1009,9 0,0
13.06.2019 02:00:00 9,8 9,0 4 2 - - W 1010,3 0,0
13.06.2019 01:00:00 9,7 9,1 5 3 - - WSW 1010,5 0,0
13.06.2019 00:00:00 9,7 8,9 2 1 - - NNW 1010,4 0,0
12.06.2019 23:00:00 10,3 9,1 0 0 - - N 1010,5 0,0
12.06.2019 22:00:00 11,7 9,1 4 2 - - N 1010,3 0,0
12.06.2019 21:00:00 13,1 10,1 7 4 - - NE 1010,2 0,0
12.06.2019 20:00:00 13,5 9,5 13 7 - - NNE 1010,1 0,0
12.06.2019 19:00:00 13,9 10,3 12 6 - - NE 1010,1 0,0
12.06.2019 18:00:00 13,9 10,3 13 7 - - NE 1010,5 0,0
12.06.2019 17:00:00 14,3 11,3 16 8 - - NNE 1010,3 0,0
12.06.2019 16:00:00 14,7 11,3 16 9 - - NNE 1010,3 0,0
12.06.2019 15:00:00 14,5 11,6 15 8 - - NNE 1010,2 0,0
12.06.2019 14:00:00 14,5 11,1 15 8 - - N 1010,4 0,0
12.06.2019 13:00:00 13,3 10,7 14 8 - - NNE 1010,5 0,0
12.06.2019 12:00:00 12,9 10,6 15 8 - - NE 1010,5 0,0
12.06.2019 11:00:00 12,9 10,6 14 8 - - NE 1010,5 0,0
12.06.2019 10:00:00 12,5 10,2 18 10 - - NNE 1010,8 0,0
12.06.2019 09:00:00 11,8 10,2 17 9 - - NNE 1010,7 0,0
12.06.2019 08:00:00 11,4 10,1 17 9 - - NNE 1010,7 0,0
12.06.2019 07:00:00 11,4 10,0 17 9 - - NNE 1010,7 0,0
12.06.2019 06:00:00 11,6 10,2 16 9 - - NNE 1010,9 0,0
12.06.2019 05:00:00 11,6 10,2 17 9 - - NNE 1011,0 0,0
12.06.2019 04:00:00 11,7 10,3 19 11 - - NNE 1011,3 0,0
12.06.2019 03:00:00 11,9 10,6 21 11 - - NNE 1011,9 0,0
12.06.2019 02:00:00 11,9 10,8 18 10 - - NE 1012,2 0,0
12.06.2019 01:00:00 12,0 10,6 23 12 - - NE 1012,7 0,0

tt = Température de l'air
td = dewpoint
ff = Vitesse du vent
fx = gusts
dd = Direction du vent
ppp = reduced air pressure
rr = Quantités de précipitations

stations d'obs. à proximité